createdAt,value
2024-01-15T00:00:12.770Z,3.80
2024-01-15T00:00:22.231Z,3.70
2024-01-15T00:00:31.716Z,3.70
2024-01-15T00:00:41.035Z,3.80
2024-01-15T00:00:50.457Z,3.70
2024-01-15T00:00:59.943Z,3.70
2024-01-15T00:01:18.788Z,3.80
2024-01-15T00:01:28.065Z,3.70
2024-01-15T00:01:37.468Z,3.80
2024-01-15T00:01:46.937Z,3.80
2024-01-15T00:01:56.227Z,3.80
2024-01-15T00:02:05.689Z,3.80
2024-01-15T00:02:24.506Z,3.70
2024-01-15T00:02:33.933Z,3.70
2024-01-15T00:02:43.307Z,3.70
2024-01-15T00:02:52.699Z,3.70
2024-01-15T00:03:02.163Z,3.70
2024-01-15T00:03:11.513Z,3.70
2024-01-15T00:03:30.353Z,3.70
2024-01-15T00:03:39.775Z,3.70
2024-01-15T00:03:49.164Z,3.70
2024-01-15T00:03:58.595Z,3.70
2024-01-15T00:04:07.935Z,3.70
2024-01-15T00:04:17.403Z,3.70
2024-01-15T00:04:36.133Z,3.70
2024-01-15T00:04:45.512Z,3.70
2024-01-15T00:04:54.917Z,3.70
2024-01-15T00:05:04.254Z,3.70
2024-01-15T00:05:13.684Z,3.60
2024-01-15T00:05:23.090Z,3.70
2024-01-15T00:05:41.938Z,3.60
2024-01-15T00:05:51.360Z,3.60
2024-01-15T00:06:00.741Z,3.60
2024-01-15T00:06:10.167Z,3.60
2024-01-15T00:06:19.630Z,3.60
2024-01-15T00:06:29.032Z,3.60
2024-01-15T00:06:47.827Z,3.60
2024-01-15T00:06:57.268Z,3.60
2024-01-15T00:07:06.554Z,3.60
2024-01-15T00:07:15.940Z,3.60
2024-01-15T00:07:25.435Z,3.60
2024-01-15T00:07:34.746Z,3.60
2024-01-15T00:07:53.613Z,3.60
2024-01-15T00:08:03.022Z,3.60
2024-01-15T00:08:12.426Z,3.60
2024-01-15T00:08:21.847Z,3.60
2024-01-15T00:08:31.381Z,3.60
2024-01-15T00:08:40.796Z,3.60
2024-01-15T00:08:59.649Z,3.60
2024-01-15T00:09:09.040Z,3.60
2024-01-15T00:09:18.407Z,3.60
2024-01-15T00:09:27.808Z,3.60
2024-01-15T00:09:37.183Z,3.60
2024-01-15T00:09:46.656Z,3.60
2024-01-15T00:10:05.987Z,3.60
2024-01-15T00:10:15.338Z,3.60
2024-01-15T00:10:24.740Z,3.60
2024-01-15T00:10:34.164Z,3.60
2024-01-15T00:10:43.692Z,3.60
2024-01-15T00:10:53.107Z,3.60
2024-01-15T00:11:11.908Z,3.70
2024-01-15T00:11:21.397Z,3.60
2024-01-15T00:11:30.792Z,3.70
2024-01-15T00:11:40.185Z,3.70
2024-01-15T00:11:49.602Z,3.60
2024-01-15T00:11:58.983Z,3.70
2024-01-15T00:12:17.819Z,3.70
2024-01-15T00:12:27.221Z,3.70
2024-01-15T00:12:36.681Z,3.70
2024-01-15T00:12:46.223Z,3.70
2024-01-15T00:12:55.535Z,3.70
2024-01-15T00:13:04.917Z,3.70
2024-01-15T00:13:23.740Z,3.70
2024-01-15T00:13:33.133Z,3.70
2024-01-15T00:13:42.531Z,3.70
2024-01-15T00:13:51.953Z,3.70
2024-01-15T00:14:01.478Z,3.70
2024-01-15T00:14:10.859Z,3.70
2024-01-15T00:14:29.650Z,3.70
2024-01-15T00:14:39.058Z,3.70
2024-01-15T00:14:48.411Z,3.70
2024-01-15T00:14:57.914Z,3.70
2024-01-15T00:15:07.348Z,3.70
2024-01-15T00:15:16.747Z,3.70
2024-01-15T00:15:35.638Z,3.70
2024-01-15T00:15:45.013Z,3.70
2024-01-15T00:15:54.410Z,3.70
2024-01-15T00:16:03.857Z,3.70
2024-01-15T00:16:13.254Z,3.70
2024-01-15T00:16:22.664Z,3.70
2024-01-15T00:16:41.516Z,3.70
2024-01-15T00:16:50.917Z,3.60
2024-01-15T00:17:00.357Z,3.70
2024-01-15T00:17:09.761Z,3.60
2024-01-15T00:17:19.218Z,3.60
2024-01-15T00:17:28.704Z,3.70
2024-01-15T00:17:47.419Z,3.60
2024-01-15T00:17:56.799Z,3.60
2024-01-15T00:18:06.483Z,3.70
2024-01-15T00:18:15.663Z,3.60
2024-01-15T00:18:25.067Z,3.70
2024-01-15T00:18:34.498Z,3.60
2024-01-15T00:18:53.321Z,3.70
2024-01-15T00:19:02.658Z,3.60
2024-01-15T00:19:12.031Z,3.60
2024-01-15T00:19:21.482Z,3.60
2024-01-15T00:19:30.866Z,3.60
2024-01-15T00:19:40.300Z,3.60
2024-01-15T00:19:59.082Z,3.60
2024-01-15T00:20:08.414Z,3.70
2024-01-15T00:20:17.839Z,3.70
2024-01-15T00:20:30.338Z,3.60
2024-01-15T00:20:36.612Z,3.60
2024-01-15T00:20:46.010Z,3.60
2024-01-15T00:21:04.860Z,3.60
2024-01-15T00:21:14.228Z,3.60
2024-01-15T00:21:23.600Z,3.60
2024-01-15T00:21:33.015Z,3.60
2024-01-15T00:21:42.474Z,3.60
2024-01-15T00:21:51.837Z,3.60
2024-01-15T00:22:10.624Z,3.60
2024-01-15T00:22:20.032Z,3.60
2024-01-15T00:22:29.432Z,3.60
2024-01-15T00:22:38.836Z,3.60
2024-01-15T00:22:48.252Z,3.60
2024-01-15T00:22:57.650Z,3.60
2024-01-15T00:23:16.442Z,3.60
2024-01-15T00:23:25.828Z,3.60
2024-01-15T00:23:35.238Z,3.60
2024-01-15T00:23:44.632Z,3.60
2024-01-15T00:23:54.039Z,3.60
2024-01-15T00:24:03.484Z,3.60
2024-01-15T00:24:22.292Z,3.60
2024-01-15T00:24:31.750Z,3.60
2024-01-15T00:24:41.113Z,3.60
2024-01-15T00:24:50.495Z,3.60
2024-01-15T00:24:59.846Z,3.60
2024-01-15T00:25:09.265Z,3.60
2024-01-15T00:25:28.087Z,3.60
2024-01-15T00:25:37.468Z,3.50
2024-01-15T00:25:46.862Z,3.60
2024-01-15T00:25:56.286Z,3.60
2024-01-15T00:26:07.274Z,3.60
2024-01-15T00:26:15.063Z,3.60
2024-01-15T00:26:33.850Z,3.60
2024-01-15T00:26:43.308Z,3.50
2024-01-15T00:26:52.696Z,3.50
2024-01-15T00:27:02.079Z,3.50
2024-01-15T00:27:11.532Z,3.50
2024-01-15T00:27:20.938Z,3.40
2024-01-15T00:27:39.719Z,3.50
2024-01-15T00:27:49.099Z,3.50
2024-01-15T00:27:58.497Z,3.50
2024-01-15T00:28:07.885Z,3.50
2024-01-15T00:28:17.269Z,3.50
2024-01-15T00:28:26.662Z,3.50
2024-01-15T00:28:45.529Z,3.50
2024-01-15T00:28:54.901Z,3.50
2024-01-15T00:29:04.319Z,3.50
2024-01-15T00:29:13.712Z,3.50
2024-01-15T00:29:23.114Z,3.50
2024-01-15T00:29:32.540Z,3.50
2024-01-15T00:29:51.357Z,3.50
2024-01-15T00:30:00.796Z,3.50
2024-01-15T00:30:10.288Z,3.50
2024-01-15T00:30:19.725Z,3.50
2024-01-15T00:30:29.110Z,3.50
2024-01-15T00:30:38.573Z,3.50
2024-01-15T00:30:57.309Z,3.50
2024-01-15T00:31:06.798Z,3.50
2024-01-15T00:31:16.175Z,3.50
2024-01-15T00:31:25.580Z,3.50
2024-01-15T00:31:34.903Z,3.50
2024-01-15T00:31:44.313Z,3.50
2024-01-15T00:32:03.125Z,3.50
2024-01-15T00:32:12.429Z,3.50
2024-01-15T00:32:21.846Z,3.50
2024-01-15T00:32:31.333Z,3.40
2024-01-15T00:32:40.779Z,3.50
2024-01-15T00:32:50.186Z,3.40
2024-01-15T00:33:09.145Z,3.50
2024-01-15T00:33:18.476Z,3.40
2024-01-15T00:33:27.819Z,3.50
2024-01-15T00:33:37.417Z,3.50
2024-01-15T00:33:46.718Z,3.50
2024-01-15T00:33:56.149Z,3.50
2024-01-15T00:34:14.875Z,3.40
2024-01-15T00:34:24.345Z,3.50
2024-01-15T00:34:33.700Z,3.40
2024-01-15T00:34:43.099Z,3.40
2024-01-15T00:34:52.650Z,3.50
2024-01-15T00:35:01.773Z,3.40
2024-01-15T00:35:20.634Z,3.40
2024-01-15T00:35:30.065Z,3.50
2024-01-15T00:35:39.454Z,3.40
2024-01-15T00:35:48.833Z,3.50
2024-01-15T00:35:58.341Z,3.40
2024-01-15T00:36:07.811Z,3.50
2024-01-15T00:36:26.607Z,3.40
2024-01-15T00:36:36.012Z,3.40
2024-01-15T00:36:45.453Z,3.40
2024-01-15T00:36:54.776Z,3.50
2024-01-15T00:37:04.172Z,3.50
2024-01-15T00:37:13.589Z,3.50
2024-01-15T00:37:32.444Z,3.50
2024-01-15T00:37:41.837Z,3.40
2024-01-15T00:37:51.257Z,3.40
2024-01-15T00:38:00.651Z,3.40
2024-01-15T00:38:10.058Z,3.40
2024-01-15T00:38:19.512Z,3.50
2024-01-15T00:38:38.338Z,3.40
2024-01-15T00:38:47.744Z,3.40
2024-01-15T00:38:57.210Z,3.40
2024-01-15T00:39:06.666Z,3.40
2024-01-15T00:39:16.017Z,3.40
2024-01-15T00:39:25.414Z,3.40
2024-01-15T00:39:44.274Z,3.40
2024-01-15T00:39:53.673Z,3.40
2024-01-15T00:40:03.093Z,3.40
2024-01-15T00:40:12.503Z,3.40
2024-01-15T00:40:21.925Z,3.40
2024-01-15T00:40:31.406Z,3.40
2024-01-15T00:40:50.182Z,3.40
2024-01-15T00:40:59.636Z,3.40
2024-01-15T00:41:09.036Z,3.40
2024-01-15T00:41:18.459Z,3.40
2024-01-15T00:41:27.862Z,3.40
2024-01-15T00:41:37.239Z,3.40
2024-01-15T00:41:56.057Z,3.40
2024-01-15T00:42:05.484Z,3.40
2024-01-15T00:42:14.864Z,3.40
2024-01-15T00:42:24.266Z,3.40
2024-01-15T00:42:33.697Z,3.40
2024-01-15T00:42:43.052Z,3.40
2024-01-15T00:43:01.895Z,3.40
2024-01-15T00:43:11.388Z,3.40
2024-01-15T00:43:20.791Z,3.40
2024-01-15T00:43:30.164Z,3.40
2024-01-15T00:43:39.555Z,3.40
2024-01-15T00:43:48.942Z,3.40
2024-01-15T00:44:07.715Z,3.40
2024-01-15T00:44:17.152Z,3.40
2024-01-15T00:44:26.598Z,3.40
2024-01-15T00:44:36.008Z,3.40
2024-01-15T00:44:45.412Z,3.40
2024-01-15T00:44:54.770Z,3.40
2024-01-15T00:45:13.677Z,3.40
2024-01-15T00:45:23.224Z,3.40
2024-01-15T00:45:32.458Z,3.40
2024-01-15T00:45:41.843Z,3.40
2024-01-15T00:45:51.245Z,3.40
2024-01-15T00:46:00.561Z,3.40
2024-01-15T00:46:19.308Z,3.40
2024-01-15T00:46:28.713Z,3.40
2024-01-15T00:46:38.093Z,3.40
2024-01-15T00:46:47.519Z,3.40
2024-01-15T00:46:56.898Z,3.40
2024-01-15T00:47:06.295Z,3.40
2024-01-15T00:47:25.084Z,3.40
2024-01-15T00:47:34.516Z,3.40
2024-01-15T00:47:43.902Z,3.40
2024-01-15T00:47:53.384Z,3.40
2024-01-15T00:48:02.776Z,3.40
2024-01-15T00:48:12.137Z,3.40
2024-01-15T00:48:30.968Z,3.40
2024-01-15T00:48:40.406Z,3.40
2024-01-15T00:48:49.848Z,3.40
2024-01-15T00:48:59.120Z,3.40
2024-01-15T00:49:08.548Z,3.40
2024-01-15T00:49:18.017Z,3.40
2024-01-15T00:49:36.660Z,3.40
2024-01-15T00:49:46.117Z,3.40
2024-01-15T00:49:55.458Z,3.40
2024-01-15T00:50:04.885Z,3.40
2024-01-15T00:50:14.289Z,3.40
2024-01-15T00:50:23.791Z,3.40
2024-01-15T00:50:42.515Z,3.40
2024-01-15T00:50:51.929Z,3.40
2024-01-15T00:51:01.396Z,3.40
2024-01-15T00:51:10.817Z,3.40
2024-01-15T00:51:20.202Z,3.40
2024-01-15T00:51:29.590Z,3.40
2024-01-15T00:51:48.407Z,3.40
2024-01-15T00:51:57.779Z,3.40
2024-01-15T00:52:07.157Z,3.40
2024-01-15T00:52:16.621Z,3.40
2024-01-15T00:52:26.031Z,3.40
2024-01-15T00:52:35.451Z,3.40
2024-01-15T00:52:54.291Z,3.40
2024-01-15T00:53:03.717Z,3.40
2024-01-15T00:53:13.119Z,3.40
2024-01-15T00:53:22.527Z,3.40
2024-01-15T00:53:31.926Z,3.20
2024-01-15T00:53:41.402Z,3.40
2024-01-15T00:54:00.173Z,3.40
2024-01-15T00:54:09.832Z,3.40
2024-01-15T00:54:18.983Z,3.40
2024-01-15T00:54:28.400Z,3.40
2024-01-15T00:54:37.834Z,3.40
2024-01-15T00:54:47.323Z,3.40
2024-01-15T00:55:05.943Z,3.40
2024-01-15T00:55:15.369Z,3.40
2024-01-15T00:55:24.795Z,3.40
2024-01-15T00:55:34.183Z,3.40
2024-01-15T00:55:43.574Z,3.40
2024-01-15T00:55:53.130Z,3.40
2024-01-15T00:56:11.771Z,3.40
2024-01-15T00:56:21.139Z,3.40
2024-01-15T00:56:30.539Z,3.40
2024-01-15T00:56:39.946Z,3.40
2024-01-15T00:56:49.332Z,3.40
2024-01-15T00:56:58.735Z,3.40
2024-01-15T00:57:17.553Z,3.40
2024-01-15T00:57:26.997Z,3.40
2024-01-15T00:57:36.382Z,3.50
2024-01-15T00:57:45.819Z,3.40
2024-01-15T00:57:55.187Z,3.40
2024-01-15T00:58:04.932Z,3.40
2024-01-15T00:58:23.778Z,3.40
2024-01-15T00:58:33.149Z,3.40
2024-01-15T00:58:42.547Z,3.40
2024-01-15T00:58:51.962Z,3.40
2024-01-15T00:59:01.360Z,3.50
2024-01-15T00:59:10.733Z,3.40
2024-01-15T00:59:29.514Z,3.50
2024-01-15T00:59:38.928Z,3.50
2024-01-15T00:59:48.365Z,3.40
2024-01-15T00:59:57.719Z,3.40
2024-01-15T01:00:07.282Z,3.50
2024-01-15T01:00:16.700Z,3.50
2024-01-15T01:00:35.543Z,3.50
2024-01-15T01:00:44.885Z,3.50
2024-01-15T01:00:54.264Z,3.50
2024-01-15T01:01:03.698Z,3.50
2024-01-15T01:01:13.255Z,3.50
2024-01-15T01:01:22.499Z,3.50
2024-01-15T01:01:41.329Z,3.50
2024-01-15T01:01:50.715Z,3.50
2024-01-15T01:02:00.090Z,3.50
2024-01-15T01:02:09.492Z,3.50
2024-01-15T01:02:18.911Z,3.50
2024-01-15T01:02:28.324Z,3.50
2024-01-15T01:02:47.248Z,3.50
2024-01-15T01:02:56.687Z,3.50
2024-01-15T01:03:06.129Z,3.50
2024-01-15T01:03:15.599Z,3.50
2024-01-15T01:03:25.096Z,3.50
2024-01-15T01:03:34.395Z,3.50
2024-01-15T01:03:53.265Z,3.50
2024-01-15T01:04:02.695Z,3.50
2024-01-15T01:04:12.445Z,3.50
2024-01-15T01:04:21.375Z,3.50
2024-01-15T01:04:30.830Z,3.50
2024-01-15T01:04:40.105Z,3.50
2024-01-15T01:04:58.931Z,3.50
2024-01-15T01:05:08.328Z,3.50
2024-01-15T01:05:17.845Z,3.50
2024-01-15T01:05:27.176Z,3.50
2024-01-15T01:05:36.635Z,3.50
2024-01-15T01:05:46.049Z,3.50
2024-01-15T01:06:04.816Z,3.60
2024-01-15T01:06:14.283Z,3.50
2024-01-15T01:06:23.672Z,3.60
2024-01-15T01:06:34.499Z,3.50
2024-01-15T01:06:42.489Z,3.60
2024-01-15T01:06:51.953Z,3.50
2024-01-15T01:07:10.708Z,3.60
2024-01-15T01:07:20.108Z,3.60
2024-01-15T01:07:29.513Z,3.60
2024-01-15T01:07:38.904Z,3.50
2024-01-15T01:07:48.329Z,3.50
2024-01-15T01:07:57.715Z,3.50
2024-01-15T01:08:16.521Z,3.50
2024-01-15T01:08:25.918Z,3.60
2024-01-15T01:08:35.319Z,3.50
2024-01-15T01:08:44.734Z,3.50
2024-01-15T01:08:54.175Z,3.50
2024-01-15T01:09:03.662Z,3.50
2024-01-15T01:09:22.417Z,3.60
2024-01-15T01:09:41.242Z,3.60
2024-01-15T01:09:50.688Z,3.60
2024-01-15T01:10:00.048Z,3.60
2024-01-15T01:10:09.455Z,3.60
2024-01-15T01:10:28.280Z,3.60
2024-01-15T01:10:37.671Z,3.60
2024-01-15T01:10:47.053Z,3.60
2024-01-15T01:10:56.505Z,3.60
2024-01-15T01:11:05.973Z,3.60
2024-01-15T01:11:15.394Z,3.60
2024-01-15T01:11:34.148Z,3.60
2024-01-15T01:11:43.583Z,3.60
2024-01-15T01:11:52.985Z,3.60
2024-01-15T01:12:02.358Z,3.60
2024-01-15T01:12:11.762Z,3.60
2024-01-15T01:12:21.136Z,3.60
2024-01-15T01:12:42.887Z,3.60
2024-01-15T01:12:49.888Z,3.60
2024-01-15T01:12:59.237Z,3.60
2024-01-15T01:13:08.599Z,3.60
2024-01-15T01:13:17.968Z,3.60
2024-01-15T01:13:27.350Z,3.60
2024-01-15T01:13:46.140Z,3.60
2024-01-15T01:13:55.561Z,3.60
2024-01-15T01:14:04.974Z,3.60
2024-01-15T01:14:14.447Z,3.60
2024-01-15T01:14:23.986Z,3.60
2024-01-15T01:14:33.273Z,3.60
2024-01-15T01:14:52.136Z,3.60
2024-01-15T01:15:01.616Z,3.60
2024-01-15T01:15:11.009Z,3.60
2024-01-15T01:15:20.374Z,3.60
2024-01-15T01:15:29.803Z,3.60
2024-01-15T01:15:39.206Z,3.60
2024-01-15T01:15:58.056Z,3.60
2024-01-15T01:16:07.382Z,3.50
2024-01-15T01:16:16.761Z,3.50
2024-01-15T01:16:26.180Z,3.50
2024-01-15T01:16:35.616Z,3.50
2024-01-15T01:16:45.028Z,3.50
2024-01-15T01:17:03.838Z,3.40
2024-01-15T01:17:13.224Z,3.40
2024-01-15T01:17:22.805Z,3.40
2024-01-15T01:17:32.292Z,3.40
2024-01-15T01:17:41.587Z,3.30
2024-01-15T01:17:51.055Z,3.30
2024-01-15T01:18:09.882Z,3.20
2024-01-15T01:18:19.280Z,3.20
2024-01-15T01:18:28.598Z,3.20
2024-01-15T01:18:38.258Z,3.10
2024-01-15T01:18:47.610Z,3.20
2024-01-15T01:18:57.003Z,3.10
2024-01-15T01:19:15.829Z,3.10
2024-01-15T01:19:25.207Z,3.10
2024-01-15T01:19:34.630Z,3.10
2024-01-15T01:19:44.051Z,3.00
2024-01-15T01:19:53.375Z,3.00
2024-01-15T01:20:03.042Z,3.00
2024-01-15T01:20:21.830Z,2.90
2024-01-15T01:20:31.242Z,2.90
2024-01-15T01:20:40.683Z,2.90
2024-01-15T01:20:49.910Z,2.90
2024-01-15T01:20:59.317Z,2.90
2024-01-15T01:21:08.755Z,3.00
2024-01-15T01:21:27.517Z,2.80
2024-01-15T01:21:36.939Z,2.80
2024-01-15T01:21:46.422Z,2.80
2024-01-15T01:21:55.808Z,2.80
2024-01-15T01:22:05.134Z,2.70
2024-01-15T01:22:14.534Z,2.70
2024-01-15T01:22:33.388Z,2.70
2024-01-15T01:22:42.770Z,2.70
2024-01-15T01:22:52.169Z,2.70
2024-01-15T01:23:01.570Z,2.70
2024-01-15T01:23:10.959Z,2.60
2024-01-15T01:23:20.371Z,2.60
2024-01-15T01:23:39.149Z,2.60
2024-01-15T01:23:48.559Z,2.60
2024-01-15T01:23:57.953Z,2.60
2024-01-15T01:24:07.425Z,2.60
2024-01-15T01:24:16.819Z,2.60
2024-01-15T01:24:28.980Z,2.60
2024-01-15T01:24:45.628Z,2.50
2024-01-15T01:24:55.025Z,2.50
2024-01-15T01:25:04.413Z,2.50
2024-01-15T01:25:13.878Z,2.50
2024-01-15T01:25:23.238Z,2.50
2024-01-15T01:25:32.634Z,2.50
2024-01-15T01:25:51.466Z,2.50
2024-01-15T01:26:00.792Z,2.50
2024-01-15T01:26:10.209Z,2.50
2024-01-15T01:26:19.627Z,2.50
2024-01-15T01:26:29.014Z,2.40
2024-01-15T01:26:38.441Z,2.40
2024-01-15T01:26:57.250Z,2.40
2024-01-15T01:27:06.696Z,2.40
2024-01-15T01:27:16.067Z,2.40
2024-01-15T01:27:25.457Z,2.40
2024-01-15T01:27:34.875Z,2.40
2024-01-15T01:27:44.528Z,2.40
2024-01-15T01:28:03.070Z,2.30
2024-01-15T01:28:12.466Z,2.30
2024-01-15T01:28:21.912Z,2.40
2024-01-15T01:28:31.359Z,2.30
2024-01-15T01:28:40.773Z,2.30
2024-01-15T01:28:50.164Z,2.30
2024-01-15T01:29:08.992Z,2.30
2024-01-15T01:29:18.382Z,2.30
2024-01-15T01:29:27.768Z,2.30
2024-01-15T01:29:37.195Z,2.30
2024-01-15T01:29:46.594Z,2.30
2024-01-15T01:29:56.081Z,2.30
2024-01-15T01:30:15.083Z,2.20
2024-01-15T01:30:24.368Z,2.20
2024-01-15T01:30:33.789Z,2.20
2024-01-15T01:30:43.106Z,2.20
2024-01-15T01:30:52.634Z,2.20
2024-01-15T01:31:01.993Z,2.20
2024-01-15T01:31:20.878Z,2.20
2024-01-15T01:31:30.396Z,2.20
2024-01-15T01:31:39.705Z,2.20
2024-01-15T01:31:49.050Z,2.20
2024-01-15T01:31:58.379Z,2.20
2024-01-15T01:32:07.786Z,2.20
2024-01-15T01:32:26.682Z,2.20
2024-01-15T01:32:36.164Z,2.20
2024-01-15T01:32:45.572Z,2.20
2024-01-15T01:32:54.951Z,2.20
2024-01-15T01:33:04.399Z,2.20
2024-01-15T01:33:13.877Z,2.20
2024-01-15T01:33:32.687Z,2.20
2024-01-15T01:33:42.267Z,2.20
2024-01-15T01:33:51.441Z,2.20
2024-01-15T01:34:00.878Z,2.20
2024-01-15T01:34:10.296Z,2.20
2024-01-15T01:34:19.743Z,2.20
2024-01-15T01:34:38.522Z,2.20
2024-01-15T01:34:47.891Z,2.20
2024-01-15T01:34:57.305Z,2.20
2024-01-15T01:35:06.693Z,2.10
2024-01-15T01:35:16.080Z,2.20
2024-01-15T01:35:25.509Z,2.20
2024-01-15T01:35:44.330Z,2.20
2024-01-15T01:35:53.726Z,2.10
2024-01-15T01:36:03.151Z,2.20
2024-01-15T01:36:12.597Z,2.20
2024-01-15T01:36:22.075Z,2.20
2024-01-15T01:36:31.433Z,2.10
2024-01-15T01:36:50.209Z,2.10
2024-01-15T01:36:59.595Z,2.10
2024-01-15T01:37:08.970Z,2.10
2024-01-15T01:37:18.377Z,2.10
2024-01-15T01:37:27.801Z,2.10
2024-01-15T01:37:37.193Z,2.10
2024-01-15T01:37:55.984Z,2.10
2024-01-15T01:38:05.371Z,2.10
2024-01-15T01:38:14.793Z,2.10
2024-01-15T01:38:24.198Z,2.20
2024-01-15T01:38:33.588Z,2.10
2024-01-15T01:38:42.992Z,2.10
2024-01-15T01:39:01.864Z,2.10
2024-01-15T01:39:11.381Z,2.10
2024-01-15T01:39:20.842Z,2.10
2024-01-15T01:39:30.221Z,2.10
2024-01-15T01:39:39.655Z,2.10
2024-01-15T01:39:49.132Z,2.10
2024-01-15T01:40:07.929Z,2.10
2024-01-15T01:40:17.362Z,2.10
2024-01-15T01:40:26.767Z,2.10
2024-01-15T01:40:36.151Z,2.10
2024-01-15T01:40:45.580Z,2.10
2024-01-15T01:40:54.966Z,2.10
2024-01-15T01:41:13.797Z,2.10
2024-01-15T01:41:23.244Z,2.10
2024-01-15T01:41:32.570Z,2.20
2024-01-15T01:41:41.947Z,2.10
2024-01-15T01:41:51.385Z,2.10
2024-01-15T01:42:00.781Z,2.10
2024-01-15T01:42:19.670Z,2.10
2024-01-15T01:42:29.088Z,2.10
2024-01-15T01:42:38.519Z,2.10
2024-01-15T01:42:47.861Z,2.10
2024-01-15T01:42:57.268Z,2.10
2024-01-15T01:43:06.652Z,2.10
2024-01-15T01:43:25.425Z,2.10
2024-01-15T01:43:34.831Z,2.10
2024-01-15T01:43:44.271Z,2.10
2024-01-15T01:43:53.676Z,2.10
2024-01-15T01:44:03.089Z,2.10
2024-01-15T01:44:12.488Z,2.10
2024-01-15T01:44:31.353Z,2.10
2024-01-15T01:44:40.749Z,2.10
2024-01-15T01:44:50.185Z,2.10
2024-01-15T01:44:59.853Z,2.10
2024-01-15T01:45:09.257Z,2.10
2024-01-15T01:45:18.731Z,2.10
2024-01-15T01:45:37.476Z,2.10
2024-01-15T01:45:46.919Z,2.10
2024-01-15T01:45:56.357Z,2.10
2024-01-15T01:46:05.658Z,2.10
2024-01-15T01:46:15.041Z,2.10
2024-01-15T01:46:24.437Z,2.10
2024-01-15T01:46:43.207Z,2.10
2024-01-15T01:46:52.572Z,2.10
2024-01-15T01:47:01.980Z,2.10
2024-01-15T01:47:11.387Z,2.10
2024-01-15T01:47:20.807Z,2.00
2024-01-15T01:47:30.243Z,2.10
2024-01-15T01:47:48.990Z,2.10
2024-01-15T01:47:58.479Z,2.10
2024-01-15T01:48:07.925Z,2.10
2024-01-15T01:48:17.378Z,2.10
2024-01-15T01:48:26.682Z,2.10
2024-01-15T01:48:36.127Z,2.10
2024-01-15T01:48:54.915Z,2.10
2024-01-15T01:49:04.371Z,2.10
2024-01-15T01:49:13.826Z,2.10
2024-01-15T01:49:23.246Z,2.10
2024-01-15T01:49:32.645Z,2.10
2024-01-15T01:49:42.025Z,2.10
2024-01-15T01:50:00.850Z,2.10
2024-01-15T01:50:10.266Z,2.10
2024-01-15T01:50:19.671Z,2.00
2024-01-15T01:50:29.051Z,2.10
2024-01-15T01:50:38.480Z,2.10
2024-01-15T01:50:47.921Z,2.10
2024-01-15T01:51:06.786Z,2.10
2024-01-15T01:51:16.118Z,2.10
2024-01-15T01:51:25.557Z,2.10
2024-01-15T01:51:35.009Z,2.10
2024-01-15T01:51:44.471Z,2.10
2024-01-15T01:51:53.820Z,2.10
2024-01-15T01:52:12.557Z,2.10
2024-01-15T01:52:21.960Z,2.10
2024-01-15T01:52:31.433Z,2.00
2024-01-15T01:52:40.836Z,2.10
2024-01-15T01:52:50.306Z,2.10
2024-01-15T01:52:59.702Z,2.10
2024-01-15T01:53:18.537Z,2.10
2024-01-15T01:53:27.935Z,2.10
2024-01-15T01:53:37.322Z,2.10
2024-01-15T01:53:46.759Z,2.10
2024-01-15T01:53:56.154Z,2.10
2024-01-15T01:54:05.615Z,2.10
2024-01-15T01:54:24.412Z,2.10
2024-01-15T01:54:33.820Z,2.10
2024-01-15T01:54:43.238Z,2.10
2024-01-15T01:54:52.652Z,2.10
2024-01-15T01:55:01.991Z,2.10
2024-01-15T01:55:11.450Z,2.10
2024-01-15T01:55:30.249Z,2.10
2024-01-15T01:55:39.657Z,2.10
2024-01-15T01:55:49.086Z,2.10
2024-01-15T01:55:58.477Z,2.10
2024-01-15T01:56:07.903Z,2.10
2024-01-15T01:56:17.308Z,2.10
2024-01-15T01:56:36.130Z,2.10
2024-01-15T01:56:45.592Z,2.10
2024-01-15T01:56:54.962Z,2.10
2024-01-15T01:57:04.493Z,2.10
2024-01-15T01:57:13.828Z,2.10
2024-01-15T01:57:23.270Z,2.10
2024-01-15T01:57:42.139Z,2.10
2024-01-15T01:57:51.549Z,2.10
2024-01-15T01:58:00.916Z,2.10
2024-01-15T01:58:10.347Z,2.10
2024-01-15T01:58:19.772Z,2.10
2024-01-15T01:58:29.183Z,2.10
2024-01-15T01:58:47.987Z,2.10
2024-01-15T01:58:57.379Z,2.10
2024-01-15T01:59:06.824Z,2.10
2024-01-15T01:59:16.218Z,2.10
2024-01-15T01:59:25.617Z,2.10
2024-01-15T01:59:35.032Z,2.10
2024-01-15T01:59:53.871Z,2.10
2024-01-15T02:00:03.326Z,2.10
2024-01-15T02:00:12.758Z,2.10
2024-01-15T02:00:22.159Z,2.10
2024-01-15T02:00:31.542Z,2.20
2024-01-15T02:00:40.981Z,2.20
2024-01-15T02:00:59.834Z,2.20
2024-01-15T02:01:09.396Z,2.20
2024-01-15T02:01:18.556Z,2.20
2024-01-15T02:01:27.985Z,2.20
2024-01-15T02:01:37.409Z,2.30
2024-01-15T02:01:46.755Z,2.30
2024-01-15T02:02:05.694Z,2.40
2024-01-15T02:02:14.936Z,2.40
2024-01-15T02:02:24.426Z,2.40
2024-01-15T02:02:33.736Z,2.40
2024-01-15T02:02:43.134Z,2.50
2024-01-15T02:02:52.520Z,2.50
2024-01-15T02:03:11.334Z,2.50
2024-01-15T02:03:20.768Z,2.60
2024-01-15T02:03:30.297Z,2.60
2024-01-15T02:03:39.676Z,2.60
2024-01-15T02:03:49.127Z,2.60
2024-01-15T02:03:58.686Z,2.70
2024-01-15T02:04:20.775Z,2.70
2024-01-15T02:04:26.900Z,2.70
2024-01-15T02:04:36.269Z,2.80
2024-01-15T02:04:45.739Z,2.80
2024-01-15T02:04:55.073Z,2.80
2024-01-15T02:05:04.484Z,2.80
2024-01-15T02:05:23.375Z,2.90
2024-01-15T02:05:32.592Z,2.90
2024-01-15T02:05:42.017Z,2.90
2024-01-15T02:05:51.419Z,2.90
2024-01-15T02:06:00.854Z,3.00
2024-01-15T02:06:10.364Z,3.00
2024-01-15T02:06:29.211Z,3.00
2024-01-15T02:06:38.569Z,3.10
2024-01-15T02:06:47.815Z,3.10
2024-01-15T02:06:57.336Z,3.10
2024-01-15T02:07:06.605Z,3.10
2024-01-15T02:07:16.054Z,3.10
2024-01-15T02:07:34.799Z,3.20
2024-01-15T02:07:44.172Z,3.20
2024-01-15T02:07:53.604Z,3.20
2024-01-15T02:08:03.022Z,3.20
2024-01-15T02:08:12.429Z,3.20
2024-01-15T02:08:21.809Z,3.20
2024-01-15T02:08:40.611Z,3.20
2024-01-15T02:08:50.030Z,3.30
2024-01-15T02:08:59.396Z,3.30
2024-01-15T02:09:08.830Z,3.30
2024-01-15T02:09:18.241Z,3.30
2024-01-15T02:09:27.671Z,3.30
2024-01-15T02:09:46.714Z,3.30
2024-01-15T02:09:56.044Z,3.30
2024-01-15T02:10:05.382Z,3.40
2024-01-15T02:10:14.778Z,3.40
2024-01-15T02:10:24.234Z,3.40
2024-01-15T02:10:33.625Z,3.40
2024-01-15T02:10:52.423Z,3.40
2024-01-15T02:11:01.823Z,3.40
2024-01-15T02:11:11.209Z,3.40
2024-01-15T02:11:20.597Z,3.40
2024-01-15T02:11:29.973Z,3.50
2024-01-15T02:11:39.379Z,3.50
2024-01-15T02:11:58.184Z,3.50
2024-01-15T02:12:07.648Z,3.50
2024-01-15T02:12:16.981Z,3.50
2024-01-15T02:12:26.396Z,3.30
2024-01-15T02:12:35.860Z,3.50
2024-01-15T02:12:45.327Z,3.50
2024-01-15T02:13:04.036Z,3.50
2024-01-15T02:13:13.449Z,3.60
2024-01-15T02:13:22.839Z,3.50
2024-01-15T02:13:32.241Z,3.60
2024-01-15T02:13:41.630Z,3.60
2024-01-15T02:13:51.000Z,3.60
2024-01-15T02:14:09.778Z,3.60
2024-01-15T02:14:19.251Z,3.60
2024-01-15T02:14:28.655Z,3.60
2024-01-15T02:14:38.033Z,3.60
2024-01-15T02:14:47.449Z,3.60
2024-01-15T02:14:56.823Z,3.60
2024-01-15T02:15:15.611Z,3.50
2024-01-15T02:15:25.042Z,3.60
2024-01-15T02:15:34.497Z,3.60
2024-01-15T02:15:43.853Z,3.60
2024-01-15T02:15:53.339Z,3.60
2024-01-15T02:16:02.624Z,3.60
2024-01-15T02:16:21.476Z,3.60
2024-01-15T02:16:30.841Z,3.60
2024-01-15T02:16:40.248Z,3.60
2024-01-15T02:16:49.620Z,3.60
2024-01-15T02:16:59.035Z,3.60
2024-01-15T02:17:08.452Z,3.60
2024-01-15T02:17:27.353Z,3.60
2024-01-15T02:17:36.656Z,3.60
2024-01-15T02:17:46.065Z,3.60
2024-01-15T02:17:55.470Z,3.60
2024-01-15T02:18:05.013Z,3.60
2024-01-15T02:18:14.395Z,3.60
2024-01-15T02:18:33.138Z,3.70
2024-01-15T02:18:42.550Z,3.70
2024-01-15T02:18:52.007Z,3.70
2024-01-15T02:19:01.431Z,3.70
2024-01-15T02:19:10.785Z,3.70
2024-01-15T02:19:20.364Z,3.70
2024-01-15T02:19:39.062Z,3.70
2024-01-15T02:19:48.464Z,3.70
2024-01-15T02:19:57.816Z,3.70
2024-01-15T02:20:07.161Z,3.70
2024-01-15T02:20:16.544Z,3.70
2024-01-15T02:20:25.964Z,3.70
2024-01-15T02:20:44.780Z,3.70
2024-01-15T02:20:54.193Z,3.70
2024-01-15T02:21:06.414Z,3.70
2024-01-15T02:21:15.786Z,3.70
2024-01-15T02:21:25.195Z,3.70
2024-01-15T02:21:34.597Z,3.70
2024-01-15T02:21:53.403Z,3.70
2024-01-15T02:22:02.723Z,3.70
2024-01-15T02:22:12.147Z,3.70
2024-01-15T02:22:21.551Z,3.70
2024-01-15T02:22:30.954Z,3.70
2024-01-15T02:22:40.321Z,3.70
2024-01-15T02:22:59.103Z,3.70
2024-01-15T02:23:08.495Z,3.70
2024-01-15T02:23:17.920Z,3.70
2024-01-15T02:23:27.305Z,3.70
2024-01-15T02:23:36.686Z,3.70
2024-01-15T02:23:46.077Z,3.70
2024-01-15T02:24:04.877Z,3.70
2024-01-15T02:24:14.309Z,3.70
2024-01-15T02:24:23.639Z,3.70
2024-01-15T02:24:32.993Z,3.70
2024-01-15T02:24:42.446Z,3.70
2024-01-15T02:24:51.970Z,3.70
2024-01-15T02:25:10.606Z,3.70
2024-01-15T02:25:20.009Z,3.70
2024-01-15T02:25:29.396Z,3.70
2024-01-15T02:25:38.773Z,3.70
2024-01-15T02:25:48.181Z,3.70
2024-01-15T02:25:57.548Z,3.70
2024-01-15T02:26:16.350Z,3.70
2024-01-15T02:26:25.722Z,3.70